sensor_id;sensor_type;location;lat;lon;timestamp;pressure;altitude;pressure_sealevel;temperature;humidity
9325;BME280;4701;51.566;6.776;2023-04-12T07:03:41;99545.72;;;8.34;96.68
9325;BME280;4701;51.566;6.776;2023-04-12T07:06:42;99540.00;;;8.41;97.37
9325;BME280;4701;51.566;6.776;2023-04-12T07:09:44;99546.72;;;8.48;98.07
9325;BME280;4701;51.566;6.776;2023-04-12T07:12:47;99544.22;;;8.57;98.38
9325;BME280;4701;51.566;6.776;2023-04-12T07:15:49;99536.03;;;8.62;98.80
9325;BME280;4701;51.566;6.776;2023-04-12T07:18:52;99537.59;;;8.68;98.84
9325;BME280;4701;51.566;6.776;2023-04-12T07:21:54;99531.34;;;8.72;98.10
9325;BME280;4701;51.566;6.776;2023-04-12T07:24:56;99519.88;;;8.81;97.68
9325;BME280;4701;51.566;6.776;2023-04-12T07:27:58;99520.63;;;8.86;97.55
9325;BME280;4701;51.566;6.776;2023-04-12T07:31:00;99516.78;;;8.92;97.38
9325;BME280;4701;51.566;6.776;2023-04-12T07:34:06;99512.09;;;8.98;97.79
9325;BME280;4701;51.566;6.776;2023-04-12T07:37:08;99513.94;;;9.02;96.75
9325;BME280;4701;51.566;6.776;2023-04-12T07:40:10;99481.31;;;9.07;97.09
9325;BME280;4701;51.566;6.776;2023-04-12T07:43:12;99487.78;;;9.11;96.70
9325;BME280;4701;51.566;6.776;2023-04-12T07:46:14;99488.56;;;9.17;96.15
9325;BME280;4701;51.566;6.776;2023-04-12T07:49:17;99481.41;;;9.21;96.01
9325;BME280;4701;51.566;6.776;2023-04-12T07:52:19;99483.28;;;9.26;95.63
9325;BME280;4701;51.566;6.776;2023-04-12T07:55:21;99482.97;;;9.27;95.40
9325;BME280;4701;51.566;6.776;2023-04-12T07:58:23;99480.50;;;9.31;95.13
9325;BME280;4701;51.566;6.776;2023-04-12T08:01:25;99475.31;;;9.34;94.87
9325;BME280;4701;51.566;6.776;2023-04-12T08:04:30;99479.34;;;9.37;94.54
9325;BME280;4701;51.566;6.776;2023-04-12T08:07:32;99492.44;;;9.35;94.68
9325;BME280;4701;51.566;6.776;2023-04-12T08:10:34;99504.13;;;9.35;94.82
9325;BME280;4701;51.566;6.776;2023-04-12T08:13:36;99498.09;;;9.38;94.52
9325;BME280;4701;51.566;6.776;2023-04-12T08:16:38;99491.56;;;9.39;94.12
9325;BME280;4701;51.566;6.776;2023-04-12T08:19:41;99486.66;;;9.41;94.35
9325;BME280;4701;51.566;6.776;2023-04-12T08:22:44;99474.69;;;9.42;94.23
9325;BME280;4701;51.566;6.776;2023-04-12T08:25:46;99472.47;;;9.44;94.03
9325;BME280;4701;51.566;6.776;2023-04-12T08:28:48;99473.78;;;9.47;93.95
9325;BME280;4701;51.566;6.776;2023-04-12T08:31:49;99471.59;;;9.49;94.41
9325;BME280;4701;51.566;6.776;2023-04-12T08:34:53;99464.78;;;9.52;93.82
9325;BME280;4701;51.566;6.776;2023-04-12T08:37:55;99461.47;;;9.55;94.39
9325;BME280;4701;51.566;6.776;2023-04-12T08:40:57;99457.34;;;9.57;94.85
9325;BME280;4701;51.566;6.776;2023-04-12T08:43:59;99462.50;;;9.59;94.57
9325;BME280;4701;51.566;6.776;2023-04-12T08:47:01;99457.59;;;9.61;94.60
9325;BME280;4701;51.566;6.776;2023-04-12T08:50:05;99458.38;;;9.61;94.60
9325;BME280;4701;51.566;6.776;2023-04-12T08:53:09;99462.44;;;9.64;94.92
9325;BME280;4701;51.566;6.776;2023-04-12T08:56:12;99471.13;;;9.66;94.86
9325;BME280;4701;51.566;6.776;2023-04-12T08:59:14;99473.84;;;9.66;94.73
9325;BME280;4701;51.566;6.776;2023-04-12T09:02:15;99463.78;;;9.66;94.04
9325;BME280;4701;51.566;6.776;2023-04-12T09:05:19;99464.06;;;9.65;94.63
9325;BME280;4701;51.566;6.776;2023-04-12T09:08:22;99470.03;;;9.67;94.09
9325;BME280;4701;51.566;6.776;2023-04-12T09:11:25;99474.38;;;9.68;94.44
9325;BME280;4701;51.566;6.776;2023-04-12T09:14:28;99459.66;;;9.69;94.35
9325;BME280;4701;51.566;6.776;2023-04-12T09:17:30;99466.69;;;9.70;94.36
9325;BME280;4701;51.566;6.776;2023-04-12T09:20:35;99477.31;;;9.71;94.36
9325;BME280;4701;51.566;6.776;2023-04-12T09:23:36;99465.31;;;9.72;94.27
9325;BME280;4701;51.566;6.776;2023-04-12T09:26:38;99457.97;;;9.73;94.66
9325;BME280;4701;51.566;6.776;2023-04-12T09:29:46;99454.44;;;9.72;94.66
9325;BME280;4701;51.566;6.776;2023-04-12T09:32:51;99465.84;;;9.74;94.35
9325;BME280;4701;51.566;6.776;2023-04-12T09:35:58;99463.13;;;9.74;94.84
9325;BME280;4701;51.566;6.776;2023-04-12T09:39:01;99455.78;;;9.75;94.28
9325;BME280;4701;51.566;6.776;2023-04-12T09:42:04;99453.06;;;9.75;94.27
9325;BME280;4701;51.566;6.776;2023-04-12T09:45:18;99445.69;;;9.75;94.77
9325;BME280;4701;51.566;6.776;2023-04-12T09:48:21;99450.53;;;9.78;94.99
9325;BME280;4701;51.566;6.776;2023-04-12T09:51:29;99450.78;;;9.82;94.66
9325;BME280;4701;51.566;6.776;2023-04-12T09:54:37;99444.75;;;9.85;94.62
9325;BME280;4701;51.566;6.776;2023-04-12T09:57:40;99449.31;;;9.90;94.76
9325;BME280;4701;51.566;6.776;2023-04-12T10:00:43;99444.31;;;9.97;95.39
9325;BME280;4701;51.566;6.776;2023-04-12T10:03:46;99446.06;;;10.06;95.57
9325;BME280;4701;51.566;6.776;2023-04-12T10:06:49;99451.16;;;10.13;96.03
9325;BME280;4701;51.566;6.776;2023-04-12T10:09:51;99443.66;;;10.23;96.11
9325;BME280;4701;51.566;6.776;2023-04-12T10:12:53;99428.09;;;10.29;96.07
9325;BME280;4701;51.566;6.776;2023-04-12T10:15:56;99422.53;;;10.34;96.42
9325;BME280;4701;51.566;6.776;2023-04-12T10:19:01;99440.41;;;10.40;96.54
9325;BME280;4701;51.566;6.776;2023-04-12T10:22:04;99445.00;;;10.45;96.05
9325;BME280;4701;51.566;6.776;2023-04-12T10:25:09;99455.78;;;10.50;95.95
9325;BME280;4701;51.566;6.776;2023-04-12T10:28:14;99449.81;;;10.48;94.39
9325;BME280;4701;51.566;6.776;2023-04-12T10:31:26;99467.06;;;10.43;92.13
9325;BME280;4701;51.566;6.776;2023-04-12T10:34:29;99467.94;;;10.39;90.47
9325;BME280;4701;51.566;6.776;2023-04-12T10:37:57;99469.94;;;10.33;89.25
9325;BME280;4701;51.566;6.776;2023-04-12T10:41:10;99468.19;;;10.23;87.49
9325;BME280;4701;51.566;6.776;2023-04-12T10:44:24;99461.19;;;10.17;87.16
9325;BME280;4701;51.566;6.776;2023-04-12T10:47:55;99465.06;;;10.11;86.53
9325;BME280;4701;51.566;6.776;2023-04-12T10:51:17;99468.94;;;10.05;86.25
9325;BME280;4701;51.566;6.776;2023-04-12T10:54:33;99470.66;;;10.01;85.99
9325;BME280;4701;51.566;6.776;2023-04-12T10:57:42;99471.22;;;9.98;86.18
9325;BME280;4701;51.566;6.776;2023-04-12T11:01:08;99468.00;;;9.96;86.03
9325;BME280;4701;51.566;6.776;2023-04-12T11:04:15;99468.31;;;9.95;86.44
9325;BME280;4701;51.566;6.776;2023-04-12T11:07:22;99466.69;;;9.94;86.28
9325;BME280;4701;51.566;6.776;2023-04-12T11:10:37;99471.84;;;9.95;85.98
9325;BME280;4701;51.566;6.776;2023-04-12T11:13:39;99452.19;;;9.98;86.53
9325;BME280;4701;51.566;6.776;2023-04-12T11:20:20;99445.34;;;10.01;86.15
9325;BME280;4701;51.566;6.776;2023-04-12T11:23:22;99455.63;;;10.04;85.74
9325;BME280;4701;51.566;6.776;2023-04-12T11:26:28;99458.88;;;10.06;85.34
9325;BME280;4701;51.566;6.776;2023-04-12T11:29:31;99456.91;;;10.11;85.48
9325;BME280;4701;51.566;6.776;2023-04-12T11:32:33;99459.53;;;10.16;85.90
9325;BME280;4701;51.566;6.776;2023-04-12T11:35:35;99459.00;;;10.19;85.33
9325;BME280;4701;51.566;6.776;2023-04-12T11:38:38;99470.91;;;10.23;85.42
9325;BME280;4701;51.566;6.776;2023-04-12T11:41:44;99471.94;;;10.28;85.15
9325;BME280;4701;51.566;6.776;2023-04-12T11:44:46;99483.84;;;10.32;85.36
9325;BME280;4701;51.566;6.776;2023-04-12T11:47:48;99484.91;;;10.36;84.97
9325;BME280;4701;51.566;6.776;2023-04-12T11:50:51;99473.38;;;10.39;85.07
9325;BME280;4701;51.566;6.776;2023-04-12T11:53:54;99471.72;;;10.43;84.71
9325;BME280;4701;51.566;6.776;2023-04-12T11:56:57;99468.09;;;10.47;85.10
9325;BME280;4701;51.566;6.776;2023-04-12T12:00:00;99468.03;;;10.52;85.18
9325;BME280;4701;51.566;6.776;2023-04-12T12:03:12;99459.75;;;10.57;85.28
9325;BME280;4701;51.566;6.776;2023-04-12T12:06:15;99451.19;;;10.64;85.04
9325;BME280;4701;51.566;6.776;2023-04-12T12:09:18;99448.41;;;10.69;85.19
9325;BME280;4701;51.566;6.776;2023-04-12T12:12:22;99444.69;;;10.79;85.10
9325;BME280;4701;51.566;6.776;2023-04-12T12:15:28;99441.28;;;10.87;85.19
9325;BME280;4701;51.566;6.776;2023-04-12T12:18:30;99435.94;;;10.95;84.96
9325;BME280;4701;51.566;6.776;2023-04-12T12:21:32;99439.25;;;11.06;84.90
9325;BME280;4701;51.566;6.776;2023-04-12T12:24:34;99448.06;;;11.17;84.75
9325;BME280;4701;51.566;6.776;2023-04-12T12:27:38;99435.34;;;11.26;83.96
9325;BME280;4701;51.566;6.776;2023-04-12T12:30:43;99435.66;;;11.38;83.66
9325;BME280;4701;51.566;6.776;2023-04-12T12:33:45;99433.53;;;11.49;83.24
9325;BME280;4701;51.566;6.776;2023-04-12T12:36:53;99438.19;;;11.62;82.72
9325;BME280;4701;51.566;6.776;2023-04-12T12:40:04;99452.84;;;11.80;82.34
9325;BME280;4701;51.566;6.776;2023-04-12T12:43:16;99442.69;;;11.94;81.02
9325;BME280;4701;51.566;6.776;2023-04-12T12:46:19;99453.91;;;12.06;80.32
9325;BME280;4701;51.566;6.776;2023-04-12T12:49:21;99453.84;;;12.20;79.47
9325;BME280;4701;51.566;6.776;2023-04-12T12:52:23;99441.28;;;12.32;78.39
9325;BME280;4701;51.566;6.776;2023-04-12T12:55:25;99431.69;;;12.43;76.83
9325;BME280;4701;51.566;6.776;2023-04-12T12:58:28;99437.72;;;12.54;75.70
9325;BME280;4701;51.566;6.776;2023-04-12T13:01:30;99427.66;;;12.63;74.95
9325;BME280;4701;51.566;6.776;2023-04-12T13:04:32;99425.59;;;12.69;73.99
9325;BME280;4701;51.566;6.776;2023-04-12T13:07:35;99418.91;;;12.75;73.30
9325;BME280;4701;51.566;6.776;2023-04-12T13:10:37;99418.75;;;12.80;72.75
9325;BME280;4701;51.566;6.776;2023-04-12T13:13:40;99425.69;;;12.86;72.83
9325;BME280;4701;51.566;6.776;2023-04-12T13:16:42;99418.19;;;12.92;72.47
9325;BME280;4701;51.566;6.776;2023-04-12T13:19:45;99423.53;;;12.97;72.38
9325;BME280;4701;51.566;6.776;2023-04-12T13:22:48;99427.72;;;13.03;72.06
9325;BME280;4701;51.566;6.776;2023-04-12T13:25:51;99429.84;;;13.06;72.10
9325;BME280;4701;51.566;6.776;2023-04-12T13:28:54;99471.38;;;13.08;71.62
9325;BME280;4701;51.566;6.776;2023-04-12T13:31:56;99476.34;;;13.06;69.80
9325;BME280;4701;51.566;6.776;2023-04-12T13:34:57;99487.44;;;13.01;70.71
9325;BME280;4701;51.566;6.776;2023-04-12T13:37:59;99479.16;;;12.92;72.56
9325;BME280;4701;51.566;6.776;2023-04-12T13:41:01;99491.63;;;12.76;74.10
9325;BME280;4701;51.566;6.776;2023-04-12T13:44:04;99489.88;;;12.58;74.34
9325;BME280;4701;51.566;6.776;2023-04-12T13:47:06;99490.03;;;12.39;74.75
9325;BME280;4701;51.566;6.776;2023-04-12T13:50:09;99497.25;;;12.21;75.04
9325;BME280;4701;51.566;6.776;2023-04-12T13:53:11;99493.84;;;12.02;75.52
9325;BME280;4701;51.566;6.776;2023-04-12T13:56:12;99497.22;;;11.85;76.18
9325;BME280;4701;51.566;6.776;2023-04-12T13:59:16;99493.97;;;11.69;76.37
9325;BME280;4701;51.566;6.776;2023-04-12T14:02:18;99491.63;;;11.49;76.24
9325;BME280;4701;51.566;6.776;2023-04-12T14:05:20;99503.75;;;11.29;76.24
9325;BME280;4701;51.566;6.776;2023-04-12T14:08:22;99505.16;;;11.13;76.01
9325;BME280;4701;51.566;6.776;2023-04-12T14:11:24;99509.53;;;10.95;76.09
9325;BME280;4701;51.566;6.776;2023-04-12T14:14:27;99521.50;;;10.81;76.61
9325;BME280;4701;51.566;6.776;2023-04-12T14:17:29;99529.34;;;10.69;77.28
9325;BME280;4701;51.566;6.776;2023-04-12T14:20:31;99519.16;;;10.55;77.15
9325;BME280;4701;51.566;6.776;2023-04-12T14:23:33;99514.19;;;10.44;77.81
9325;BME280;4701;51.566;6.776;2023-04-12T14:26:35;99513.53;;;10.33;77.85
9325;BME280;4701;51.566;6.776;2023-04-12T14:29:40;99528.63;;;10.26;79.04
9325;BME280;4701;51.566;6.776;2023-04-12T14:32:42;99537.16;;;10.19;79.33
9325;BME280;4701;51.566;6.776;2023-04-12T14:35:44;99541.53;;;10.15;80.22
9325;BME280;4701;51.566;6.776;2023-04-12T14:38:46;99530.47;;;10.06;80.53
9325;BME280;4701;51.566;6.776;2023-04-12T14:41:48;99526.19;;;10.00;80.75
9325;BME280;4701;51.566;6.776;2023-04-12T14:44:51;99526.28;;;9.95;81.32
9325;BME280;4701;51.566;6.776;2023-04-12T14:47:54;99537.22;;;9.90;81.50
9325;BME280;4701;51.566;6.776;2023-04-12T14:50:55;99548.19;;;9.85;82.04
9325;BME280;4701;51.566;6.776;2023-04-12T14:53:57;99556.63;;;9.83;82.62
9325;BME280;4701;51.566;6.776;2023-04-12T14:56:59;99553.38;;;9.81;83.36
9325;BME280;4701;51.566;6.776;2023-04-12T15:00:02;99543.38;;;9.77;83.60
9325;BME280;4701;51.566;6.776;2023-04-12T15:03:11;99555.91;;;9.73;84.27
9325;BME280;4701;51.566;6.776;2023-04-12T15:06:13;99558.94;;;9.71;84.61
9325;BME280;4701;51.566;6.776;2023-04-12T15:09:15;99566.59;;;9.69;85.03
9325;BME280;4701;51.566;6.776;2023-04-12T15:12:17;99574.22;;;9.67;85.03
9325;BME280;4701;51.566;6.776;2023-04-12T15:15:20;99578.31;;;9.65;84.42
9325;BME280;4701;51.566;6.776;2023-04-12T15:18:22;99584.66;;;9.60;83.61
9325;BME280;4701;51.566;6.776;2023-04-12T15:21:24;99584.69;;;9.55;83.31
9325;BME280;4701;51.566;6.776;2023-04-12T15:24:27;99597.53;;;9.49;82.29
9325;BME280;4701;51.566;6.776;2023-04-12T15:27:30;99564.72;;;9.41;81.65
9325;BME280;4701;51.566;6.776;2023-04-12T15:30:33;99566.38;;;9.37;81.61
9325;BME280;4701;51.566;6.776;2023-04-12T15:33:35;99568.59;;;9.35;81.74
9325;BME280;4701;51.566;6.776;2023-04-12T15:36:37;99575.41;;;9.32;82.06
9325;BME280;4701;51.566;6.776;2023-04-12T15:39:42;99571.88;;;9.32;82.03
9325;BME280;4701;51.566;6.776;2023-04-12T15:42:44;99569.16;;;9.32;81.40
9325;BME280;4701;51.566;6.776;2023-04-12T15:45:47;99569.69;;;9.34;82.40
9325;BME280;4701;51.566;6.776;2023-04-12T15:48:52;99570.19;;;9.36;82.11
9325;BME280;4701;51.566;6.776;2023-04-12T15:51:54;99585.94;;;9.39;82.11
9325;BME280;4701;51.566;6.776;2023-04-12T15:54:56;99578.84;;;9.43;81.79
9325;BME280;4701;51.566;6.776;2023-04-12T15:57:58;99597.00;;;9.47;81.85
9325;BME280;4701;51.566;6.776;2023-04-12T16:01:02;99590.13;;;9.55;81.78
9325;BME280;4701;51.566;6.776;2023-04-12T16:04:04;99592.81;;;9.60;80.82
9325;BME280;4701;51.566;6.776;2023-04-12T16:07:06;99600.09;;;9.65;80.62
9325;BME280;4701;51.566;6.776;2023-04-12T16:10:08;99613.94;;;9.68;79.43
9325;BME280;4701;51.566;6.776;2023-04-12T16:13:11;99612.53;;;9.71;78.63
9325;BME280;4701;51.566;6.776;2023-04-12T16:16:15;99613.63;;;9.70;78.49
9325;BME280;4701;51.566;6.776;2023-04-12T16:19:17;99630.78;;;9.70;77.83
9325;BME280;4701;51.566;6.776;2023-04-12T16:22:19;99654.75;;;9.68;77.88
9325;BME280;4701;51.566;6.776;2023-04-12T16:25:22;99653.94;;;9.68;78.34
9325;BME280;4701;51.566;6.776;2023-04-12T16:28:24;99655.06;;;9.62;78.99
9325;BME280;4701;51.566;6.776;2023-04-12T16:31:28;99670.91;;;9.55;79.62
9325;BME280;4701;51.566;6.776;2023-04-12T16:34:31;99672.63;;;9.45;79.07
9325;BME280;4701;51.566;6.776;2023-04-12T16:37:33;99637.88;;;9.37;80.07
9325;BME280;4701;51.566;6.776;2023-04-12T16:40:35;99625.19;;;9.28;81.13
9325;BME280;4701;51.566;6.776;2023-04-12T16:43:36;99611.97;;;9.16;82.05
9325;BME280;4701;51.566;6.776;2023-04-12T16:46:40;99605.53;;;9.07;82.66
9325;BME280;4701;51.566;6.776;2023-04-12T16:49:41;99577.06;;;8.99;83.66
9325;BME280;4701;51.566;6.776;2023-04-12T16:52:43;99569.22;;;8.93;84.13
9325;BME280;4701;51.566;6.776;2023-04-12T16:55:45;99574.69;;;8.88;84.82
9325;BME280;4701;51.566;6.776;2023-04-12T16:58:48;99566.00;;;8.86;85.41
9325;BME280;4701;51.566;6.776;2023-04-12T17:01:51;99573.13;;;8.82;84.81
9325;BME280;4701;51.566;6.776;2023-04-12T17:04:54;99573.38;;;8.80;85.11
9325;BME280;4701;51.566;6.776;2023-04-12T17:07:55;99564.97;;;8.82;85.89
9325;BME280;4701;51.566;6.776;2023-04-12T17:10:58;99569.03;;;8.84;85.48
9325;BME280;4701;51.566;6.776;2023-04-12T17:14:00;99566.53;;;8.88;85.50
9325;BME280;4701;51.566;6.776;2023-04-12T17:17:03;99571.13;;;8.92;85.74
9325;BME280;4701;51.566;6.776;2023-04-12T17:20:06;99578.16;;;8.98;86.80
9325;BME280;4701;51.566;6.776;2023-04-12T17:23:11;99577.81;;;9.05;86.85
9325;BME280;4701;51.566;6.776;2023-04-12T17:26:12;99578.88;;;9.09;86.54
9325;BME280;4701;51.566;6.776;2023-04-12T17:29:14;99574.47;;;9.13;86.27
9325;BME280;4701;51.566;6.776;2023-04-12T17:32:17;99572.28;;;9.15;86.51
9325;BME280;4701;51.566;6.776;2023-04-12T17:35:19;99579.34;;;9.16;86.43
9325;BME280;4701;51.566;6.776;2023-04-12T17:38:21;99582.06;;;9.16;85.80
9325;BME280;4701;51.566;6.776;2023-04-12T17:41:23;99582.06;;;9.16;86.12
9325;BME280;4701;51.566;6.776;2023-04-12T17:44:25;99586.41;;;9.17;86.91
9325;BME280;4701;51.566;6.776;2023-04-12T17:47:28;99587.50;;;9.16;86.52
9325;BME280;4701;51.566;6.776;2023-04-12T17:50:30;99585.06;;;9.15;86.57
9325;BME280;4701;51.566;6.776;2023-04-12T17:53:32;99585.88;;;9.15;87.13
9325;BME280;4701;51.566;6.776;2023-04-12T17:56:34;99582.91;;;9.11;87.11
9325;BME280;4701;51.566;6.776;2023-04-12T17:59:36;99581.59;;;9.09;87.36
9325;BME280;4701;51.566;6.776;2023-04-12T18:02:39;99581.59;;;9.09;87.50
9325;BME280;4701;51.566;6.776;2023-04-12T18:05:41;99577.53;;;9.06;87.94
9325;BME280;4701;51.566;6.776;2023-04-12T18:08:45;99577.81;;;9.05;87.86
9325;BME280;4701;51.566;6.776;2023-04-12T18:11:47;99575.38;;;9.03;88.54
9325;BME280;4701;51.566;6.776;2023-04-12T18:14:49;99569.44;;;9.01;88.38
9325;BME280;4701;51.566;6.776;2023-04-12T18:17:52;99573.25;;;9.00;88.69
9325;BME280;4701;51.566;6.776;2023-04-12T18:20:54;99567.28;;;8.98;88.67
9325;BME280;4701;51.566;6.776;2023-04-12T18:23:56;99569.72;;;8.95;88.59
9325;BME280;4701;51.566;6.776;2023-04-12T18:26:57;99575.44;;;8.93;88.58
9325;BME280;4701;51.566;6.776;2023-04-12T18:30:00;99571.13;;;8.92;88.65
9325;BME280;4701;51.566;6.776;2023-04-12T18:33:04;99583.09;;;8.91;88.87
9325;BME280;4701;51.566;6.776;2023-04-12T18:36:07;99584.47;;;8.89;89.16
9325;BME280;4701;51.566;6.776;2023-04-12T18:39:09;99575.78;;;8.87;89.05
9325;BME280;4701;51.566;6.776;2023-04-12T18:42:11;99596.97;;;8.85;88.96
9325;BME280;4701;51.566;6.776;2023-04-12T18:45:13;99594.84;;;8.82;89.12
9325;BME280;4701;51.566;6.776;2023-04-12T18:48:16;99593.50;;;8.79;89.32
9325;BME280;4701;51.566;6.776;2023-04-12T18:51:20;99587.53;;;8.77;89.15
9325;BME280;4701;51.566;6.776;2023-04-12T18:54:22;99583.50;;;8.75;89.17
9325;BME280;4701;51.566;6.776;2023-04-12T18:57:24;99580.50;;;8.71;89.18
9325;BME280;4701;51.566;6.776;2023-04-12T19:00:26;99588.44;;;8.67;89.19
9325;BME280;4701;51.566;6.776;2023-04-12T19:03:29;99590.34;;;8.67;88.84
9325;BME280;4701;51.566;6.776;2023-04-12T19:06:32;99592.78;;;8.63;89.38
9325;BME280;4701;51.566;6.776;2023-04-12T19:09:34;99593.34;;;8.60;89.20
9325;BME280;4701;51.566;6.776;2023-04-12T19:12:36;99583.88;;;8.58;88.85
9325;BME280;4701;51.566;6.776;2023-04-12T19:15:39;99577.63;;;8.57;88.88
9325;BME280;4701;51.566;6.776;2023-04-12T19:18:44;99583.63;;;8.54;89.08
9325;BME280;4701;51.566;6.776;2023-04-12T19:21:46;99589.59;;;8.51;89.13
9325;BME280;4701;51.566;6.776;2023-04-12T19:24:48;99587.19;;;8.50;89.56
9325;BME280;4701;51.566;6.776;2023-04-12T19:27:50;99588.81;;;8.46;89.60
9325;BME280;4701;51.566;6.776;2023-04-12T19:30:53;99586.38;;;8.44;89.77
9325;BME280;4701;51.566;6.776;2023-04-12T19:33:56;99597.81;;;8.41;89.75
9325;BME280;4701;51.566;6.776;2023-04-12T19:36:58;99598.38;;;8.38;90.02
9325;BME280;4701;51.566;6.776;2023-04-12T19:39:59;99605.16;;;8.35;90.27
9325;BME280;4701;51.566;6.776;2023-04-12T19:43:02;99601.41;;;8.31;89.99
9325;BME280;4701;51.566;6.776;2023-04-12T19:46:04;99599.22;;;8.28;90.29
9325;BME280;4701;51.566;6.776;2023-04-12T19:49:08;99596.25;;;8.25;90.36
9325;BME280;4701;51.566;6.776;2023-04-12T19:52:10;99592.19;;;8.22;90.00
9325;BME280;4701;51.566;6.776;2023-04-12T19:55:15;99585.94;;;8.17;89.90
9325;BME280;4701;51.566;6.776;2023-04-12T19:58:17;99584.63;;;8.14;90.13
9325;BME280;4701;51.566;6.776;2023-04-12T20:01:19;99588.69;;;8.12;89.63
9325;BME280;4701;51.566;6.776;2023-04-12T20:04:22;99583.31;;;8.07;89.59
9325;BME280;4701;51.566;6.776;2023-04-12T20:07:24;99579.25;;;8.04;89.68
9325;BME280;4701;51.566;6.776;2023-04-12T20:10:26;99570.81;;;8.01;89.89
9325;BME280;4701;51.566;6.776;2023-04-12T20:13:28;99565.97;;;7.97;89.75
9325;BME280;4701;51.566;6.776;2023-04-12T20:16:30;99572.50;;;7.96;89.65
9325;BME280;4701;51.566;6.776;2023-04-12T20:19:34;99574.13;;;7.92;89.30
9325;BME280;4701;51.566;6.776;2023-04-12T20:22:41;99577.41;;;7.89;89.22
9325;BME280;4701;51.566;6.776;2023-04-12T20:25:45;99576.88;;;7.87;88.98
9325;BME280;4701;51.566;6.776;2023-04-12T20:28:48;99578.75;;;7.87;88.78
9325;BME280;4701;51.566;6.776;2023-04-12T20:31:50;99574.16;;;7.87;87.88
9325;BME280;4701;51.566;6.776;2023-04-12T20:34:54;99556.50;;;7.85;87.38
9325;BME280;4701;51.566;6.776;2023-04-12T20:37:57;99558.69;;;7.83;86.14
9325;BME280;4701;51.566;6.776;2023-04-12T20:40:59;99563.88;;;7.79;85.44
9325;BME280;4701;51.566;6.776;2023-04-12T20:44:01;99561.69;;;7.76;85.20
9325;BME280;4701;51.566;6.776;2023-04-12T20:47:03;99563.88;;;7.74;84.63
9325;BME280;4701;51.566;6.776;2023-04-12T20:50:07;99570.94;;;7.70;84.88
9325;BME280;4701;51.566;6.776;2023-04-12T20:53:09;99559.56;;;7.68;84.65
9325;BME280;4701;51.566;6.776;2023-04-12T20:56:14;99571.50;;;7.67;84.27
9325;BME280;4701;51.566;6.776;2023-04-12T20:59:18;99567.16;;;7.66;83.94
